Terminal Aerodrome Forecast
Issued by NWS

Home | Current Version | Previous Version | Text Only | Print | Product List | Glossary On
Versions: 1 2 3 4 5 6 7 8 9 10 11 12 13 14 15
000
FTUS45 KSLC 251726
TAFPVU
TAF
KPVU 251726Z 2518/2618 30008KT P6SM -SHRA BKN025 BKN040
     FM252000 30011G18KT P6SM VCSH SCT040 BKN070
     FM260300 VRB04KT P6SM SCT060 BKN120=

USA.gov is the U.S. government's official web portal to all federal, state and local government web resources and services.